createdAt,value
2018-04-29T00:00:24.838Z,0
2018-04-29T00:01:26.493Z,0
2018-04-29T00:02:28.137Z,0
2018-04-29T00:03:29.785Z,0
2018-04-29T00:04:31.460Z,0
2018-04-29T00:05:33.085Z,0
2018-04-29T00:06:34.728Z,0
2018-04-29T00:07:36.373Z,0
2018-04-29T00:08:38.022Z,0
2018-04-29T00:09:39.675Z,0
2018-04-29T00:10:41.328Z,0
2018-04-29T00:11:42.980Z,0
2018-04-29T00:12:44.623Z,0
2018-04-29T00:13:46.287Z,0
2018-04-29T00:14:47.933Z,0
2018-04-29T00:15:49.580Z,0
2018-04-29T00:16:51.225Z,0
2018-04-29T00:17:52.870Z,0
2018-04-29T00:18:54.524Z,0
2018-04-29T00:19:56.182Z,0
2018-04-29T00:20:57.831Z,0
2018-04-29T00:21:59.476Z,0
2018-04-29T00:23:01.116Z,0
2018-04-29T00:24:02.774Z,0
2018-04-29T00:25:04.420Z,0
2018-04-29T00:26:06.074Z,0
2018-04-29T00:27:07.721Z,0
2018-04-29T00:28:09.373Z,0
2018-04-29T00:29:11.017Z,0
2018-04-29T00:30:12.682Z,0
2018-04-29T00:31:14.318Z,0
2018-04-29T00:32:15.975Z,0
2018-04-29T00:33:17.622Z,0
2018-04-29T00:34:19.263Z,0
2018-04-29T00:35:20.906Z,0
2018-04-29T00:36:22.556Z,0
2018-04-29T00:37:24.206Z,0
2018-04-29T00:38:25.851Z,0
2018-04-29T00:39:27.492Z,0
2018-04-29T00:40:29.143Z,0
2018-04-29T00:41:30.781Z,0
2018-04-29T00:42:32.440Z,0
2018-04-29T00:43:34.091Z,0
2018-04-29T00:44:35.744Z,0
2018-04-29T00:45:37.404Z,0
2018-04-29T00:46:39.054Z,0
2018-04-29T00:47:40.705Z,0
2018-04-29T00:48:42.354Z,0
2018-04-29T00:49:43.996Z,0
2018-04-29T00:50:45.642Z,0
2018-04-29T00:51:47.287Z,0
2018-04-29T00:52:48.942Z,0
2018-04-29T00:53:50.581Z,0
2018-04-29T00:54:52.233Z,0
2018-04-29T00:55:53.881Z,0
2018-04-29T00:56:55.531Z,0
2018-04-29T00:57:57.185Z,0
2018-04-29T00:58:58.841Z,0
2018-04-29T01:00:00.487Z,0
2018-04-29T01:01:02.134Z,0
2018-04-29T01:02:03.793Z,0
2018-04-29T01:03:05.446Z,0
2018-04-29T01:04:07.089Z,0
2018-04-29T01:05:08.779Z,0
2018-04-29T01:06:10.426Z,0
2018-04-29T01:07:12.076Z,0
2018-04-29T01:08:13.721Z,0
2018-04-29T01:09:15.383Z,0
2018-04-29T01:10:17.036Z,0
2018-04-29T01:11:18.706Z,0
2018-04-29T01:12:20.344Z,0
2018-04-29T01:13:21.988Z,0
2018-04-29T01:14:23.633Z,0
2018-04-29T01:15:25.283Z,0
2018-04-29T01:16:26.927Z,0
2018-04-29T01:17:28.570Z,0
2018-04-29T01:18:30.220Z,0
2018-04-29T01:19:31.868Z,0
2018-04-29T01:20:33.519Z,0
2018-04-29T01:21:35.164Z,0
2018-04-29T01:22:36.814Z,0
2018-04-29T01:23:38.456Z,0
2018-04-29T01:24:40.105Z,0
2018-04-29T01:25:41.751Z,0
2018-04-29T01:26:43.417Z,0
2018-04-29T01:27:45.070Z,0
2018-04-29T01:28:46.714Z,0
2018-04-29T01:29:48.363Z,0
2018-04-29T01:30:50.014Z,0
2018-04-29T01:31:51.656Z,0
2018-04-29T01:32:53.304Z,0
2018-04-29T01:33:54.945Z,0
2018-04-29T01:34:56.609Z,0
2018-04-29T01:35:58.252Z,0
2018-04-29T01:36:59.906Z,0
2018-04-29T01:38:01.552Z,0
2018-04-29T01:39:03.210Z,0
2018-04-29T01:40:04.856Z,0
2018-04-29T01:41:06.504Z,0
2018-04-29T01:42:08.153Z,0
2018-04-29T01:43:09.810Z,0
2018-04-29T01:44:11.446Z,0
2018-04-29T01:45:13.092Z,0
2018-04-29T01:46:14.739Z,0
2018-04-29T01:47:16.382Z,0
2018-04-29T01:48:18.028Z,0
2018-04-29T01:49:19.695Z,0
2018-04-29T01:50:21.353Z,0
2018-04-29T01:51:23.023Z,0
2018-04-29T01:52:24.666Z,0
2018-04-29T01:53:26.312Z,0
2018-04-29T01:54:27.959Z,0
2018-04-29T01:55:29.607Z,0
2018-04-29T02:02:02.176Z,0
2018-04-29T02:03:03.817Z,0
2018-04-29T02:04:55.747Z,0
2018-04-29T02:05:57.391Z,0
2018-04-29T02:07:49.301Z,0
2018-04-29T02:08:50.945Z,0
2018-04-29T02:10:42.882Z,0
2018-04-29T02:11:44.524Z,0
2018-04-29T02:13:36.458Z,0
2018-04-29T02:14:38.070Z,0
2018-04-29T02:16:29.984Z,0
2018-04-29T02:17:31.637Z,0
2018-04-29T02:19:23.600Z,0
2018-04-29T02:20:25.245Z,0
2018-04-29T02:22:17.153Z,0
2018-04-29T02:23:18.794Z,0
2018-04-29T02:25:10.746Z,0
2018-04-29T02:26:12.396Z,0
2018-04-29T02:28:04.288Z,0
2018-04-29T02:29:05.921Z,0
2018-04-29T02:30:57.782Z,0
2018-04-29T02:31:59.425Z,0
2018-04-29T02:33:51.259Z,0
2018-04-29T02:34:52.904Z,0
2018-04-29T02:36:44.693Z,0
2018-04-29T02:37:46.380Z,0
2018-04-29T02:39:38.195Z,0
2018-04-29T02:40:39.833Z,0
2018-04-29T02:42:31.632Z,0
2018-04-29T02:43:33.289Z,0
2018-04-29T02:45:25.124Z,0
2018-04-29T02:46:26.767Z,0
2018-04-29T02:48:18.572Z,0
2018-04-29T02:49:20.215Z,0
2018-04-29T02:51:12.065Z,0
2018-04-29T02:52:13.704Z,0
2018-04-29T02:54:05.612Z,0
2018-04-29T02:55:07.260Z,0
2018-04-29T02:56:08.900Z,0
2018-04-29T02:57:10.547Z,0
2018-04-29T02:58:12.191Z,0
2018-04-29T02:59:13.839Z,0
2018-04-29T03:00:15.483Z,0
2018-04-29T03:01:17.138Z,0
2018-04-29T03:02:18.776Z,0
2018-04-29T03:03:20.425Z,0
2018-04-29T03:04:22.071Z,0
2018-04-29T03:05:23.714Z,0
2018-04-29T03:06:25.361Z,0
2018-04-29T03:07:27.010Z,0
2018-04-29T03:08:28.661Z,0
2018-04-29T03:09:30.308Z,0
2018-04-29T03:10:31.949Z,0
2018-04-29T03:11:33.593Z,0
2018-04-29T03:12:35.241Z,0
2018-04-29T03:13:36.890Z,0
2018-04-29T03:14:38.539Z,0
2018-04-29T03:15:40.183Z,0
2018-04-29T03:16:41.826Z,0
2018-04-29T03:17:43.463Z,0
2018-04-29T03:18:45.109Z,0
2018-04-29T03:19:46.775Z,0
2018-04-29T03:20:48.420Z,0
2018-04-29T03:21:50.077Z,0
2018-04-29T03:22:51.711Z,0
2018-04-29T03:23:53.354Z,0
2018-04-29T03:24:55.007Z,0
2018-04-29T03:25:56.678Z,0
2018-04-29T03:26:58.307Z,0
2018-04-29T03:27:59.956Z,4
2018-04-29T03:29:01.605Z,4
2018-04-29T03:30:03.251Z,4
2018-04-29T03:31:04.898Z,4
2018-04-29T03:32:06.544Z,4
2018-04-29T03:33:08.192Z,8
2018-04-29T03:34:09.835Z,4
2018-04-29T03:35:11.476Z,8
2018-04-29T03:36:13.122Z,8
2018-04-29T03:37:14.775Z,12
2018-04-29T03:38:16.413Z,16
2018-04-29T03:39:18.066Z,16
2018-04-29T03:40:19.713Z,16
2018-04-29T03:41:21.372Z,20
2018-04-29T03:42:23.019Z,24
2018-04-29T03:43:24.666Z,28
2018-04-29T03:44:26.305Z,36
2018-04-29T03:45:27.948Z,40
2018-04-29T03:46:29.596Z,48
2018-04-29T03:47:31.240Z,52
2018-04-29T03:48:32.893Z,64
2018-04-29T03:49:34.543Z,76
2018-04-29T03:50:36.196Z,84
2018-04-29T03:51:37.845Z,96
2018-04-29T03:52:39.490Z,108
2018-04-29T03:53:41.137Z,120
2018-04-29T03:54:42.779Z,136
2018-04-29T03:55:44.422Z,152
2018-04-29T03:56:46.104Z,168
2018-04-29T03:57:47.757Z,184
2018-04-29T03:58:49.411Z,204
2018-04-29T03:59:51.049Z,224
2018-04-29T04:00:52.700Z,248
2018-04-29T04:01:54.432Z,272
2018-04-29T04:02:56.075Z,300
2018-04-29T04:03:57.724Z,324
2018-04-29T04:04:59.382Z,360
2018-04-29T04:06:01.038Z,396
2018-04-29T04:07:02.678Z,432
2018-04-29T04:08:04.325Z,468
2018-04-29T04:09:05.970Z,504
2018-04-29T04:10:07.625Z,540
2018-04-29T04:11:09.268Z,572
2018-04-29T04:12:10.916Z,616
2018-04-29T04:13:12.561Z,660
2018-04-29T04:14:14.212Z,708
2018-04-29T04:15:15.861Z,756
2018-04-29T04:16:17.503Z,800
2018-04-29T04:17:19.149Z,856
2018-04-29T04:18:20.796Z,916
2018-04-29T04:19:22.443Z,980
2018-04-29T04:20:24.100Z,1044
2018-04-29T04:21:25.761Z,1100
2018-04-29T04:22:27.409Z,1160
2018-04-29T04:23:29.057Z,1220
2018-04-29T04:24:30.712Z,1288
2018-04-29T04:25:32.362Z,1352
2018-04-29T04:26:34.024Z,1416
2018-04-29T04:27:35.677Z,1468
2018-04-29T04:28:37.319Z,1528
2018-04-29T04:29:38.965Z,1592
2018-04-29T04:30:40.617Z,1672
2018-04-29T04:31:42.353Z,1760
2018-04-29T04:32:44.004Z,1868
2018-04-29T04:33:45.652Z,1984
2018-04-29T04:34:47.292Z,2108
2018-04-29T04:35:48.940Z,2220
2018-04-29T04:36:50.589Z,2316
2018-04-29T04:37:52.232Z,2396
2018-04-29T04:38:53.876Z,2444
2018-04-29T04:39:55.527Z,2488
2018-04-29T04:40:57.179Z,2536
2018-04-29T04:41:58.828Z,2588
2018-04-29T04:43:00.467Z,2648
2018-04-29T04:44:02.115Z,2704
2018-04-29T04:45:03.770Z,2772
2018-04-29T04:46:05.409Z,2852
2018-04-29T04:47:07.072Z,2952
2018-04-29T04:48:08.724Z,3056
2018-04-29T04:49:10.370Z,3144
2018-04-29T04:50:12.020Z,3252
2018-04-29T04:51:13.665Z,3388
2018-04-29T04:52:15.315Z,3532
2018-04-29T04:53:16.968Z,3688
2018-04-29T04:54:18.621Z,3864
2018-04-29T04:55:20.270Z,4012
2018-04-29T04:56:21.925Z,4128
2018-04-29T04:57:23.565Z,4276
2018-04-29T04:58:25.217Z,4372
2018-04-29T04:59:26.872Z,4440
2018-04-29T05:00:28.518Z,4536
2018-04-29T05:01:30.172Z,4600
2018-04-29T05:02:31.817Z,4672
2018-04-29T05:03:33.476Z,4928
2018-04-29T05:04:35.116Z,6032
2018-04-29T05:05:36.771Z,6968
2018-04-29T05:06:38.422Z,7204
2018-04-29T05:07:40.109Z,7384
2018-04-29T05:08:41.760Z,7568
2018-04-29T05:09:43.411Z,7768
2018-04-29T05:10:45.065Z,8012
2018-04-29T05:11:46.733Z,8332
2018-04-29T05:12:48.392Z,8656
2018-04-29T05:13:50.050Z,8980
2018-04-29T05:14:51.695Z,9204
2018-04-29T05:15:53.349Z,9440
2018-04-29T05:16:55.001Z,9852
2018-04-29T05:17:56.672Z,10460
2018-04-29T05:18:58.328Z,11400
2018-04-29T05:19:59.986Z,12636
2018-04-29T05:21:01.643Z,14748
2018-04-29T05:22:03.302Z,17888
2018-04-29T05:23:04.960Z,19520
2018-04-29T05:24:06.626Z,19200
2018-04-29T05:25:08.286Z,18144
2018-04-29T05:26:09.945Z,17952
2018-04-29T05:27:11.596Z,19104
2018-04-29T05:28:13.265Z,19392
2018-04-29T05:29:14.920Z,19232
2018-04-29T05:30:16.570Z,19072
2018-04-29T05:31:18.230Z,18848
2018-04-29T05:32:19.882Z,17056
2018-04-29T05:33:21.538Z,17152
2018-04-29T05:34:23.194Z,17536
2018-04-29T05:35:25.077Z,8468
2018-04-29T05:36:26.634Z,11196
2018-04-29T05:37:28.292Z,10628
2018-04-29T05:38:29.954Z,16576
2018-04-29T05:39:31.621Z,8272
2018-04-29T05:40:33.300Z,12888
2018-04-29T05:41:34.954Z,17728
2018-04-29T05:42:36.611Z,17536
2018-04-29T05:43:38.271Z,17024
2018-04-29T05:44:39.936Z,16224
2018-04-29T05:45:41.597Z,18016
2018-04-29T05:46:43.262Z,19520
2018-04-29T05:47:44.924Z,20192
2018-04-29T05:48:46.597Z,20256
2018-04-29T05:49:48.338Z,20352
2018-04-29T05:50:49.922Z,21344
2018-04-29T05:51:51.589Z,21696
2018-04-29T05:52:53.253Z,17056
2018-04-29T05:53:54.909Z,20960
2018-04-29T05:54:56.574Z,10444
2018-04-29T06:01:36.087Z,23040
2018-04-29T06:02:37.741Z,22944
2018-04-29T06:04:29.665Z,22208
2018-04-29T06:05:31.326Z,26304
2018-04-29T06:06:33.070Z,28000
2018-04-29T06:07:34.633Z,25664
2018-04-29T06:08:36.293Z,18816
2018-04-29T06:09:37.950Z,21856
2018-04-29T06:10:39.617Z,19872
2018-04-29T06:11:41.280Z,19808
2018-04-29T06:12:42.945Z,18464
2018-04-29T06:13:44.608Z,16616
2018-04-29T06:14:46.297Z,15260
2018-04-29T06:15:47.960Z,14400
2018-04-29T06:16:49.626Z,13996
2018-04-29T06:17:51.292Z,14028
2018-04-29T06:18:52.950Z,14492
2018-04-29T06:19:54.613Z,22560
2018-04-29T06:20:56.269Z,18336
2018-04-29T06:21:57.919Z,19040
2018-04-29T06:22:59.596Z,17600
2018-04-29T06:24:01.259Z,19168
2018-04-29T06:25:02.913Z,19776
2018-04-29T06:26:04.683Z,21344
2018-04-29T06:27:06.196Z,21920
2018-04-29T06:28:07.873Z,22080
2018-04-29T06:29:09.530Z,27424
2018-04-29T06:30:11.203Z,28352
2018-04-29T06:31:12.866Z,30784
2018-04-29T06:32:14.529Z,29120
2018-04-29T06:33:16.182Z,29280
2018-04-29T06:34:17.874Z,27264
2018-04-29T06:35:19.538Z,26784
2018-04-29T06:36:21.214Z,25504
2018-04-29T06:37:22.869Z,24256
2018-04-29T06:38:24.533Z,25280
2018-04-29T06:39:26.204Z,27424
2018-04-29T06:40:27.869Z,28384
2018-04-29T06:41:29.533Z,28672
2018-04-29T06:42:31.198Z,29152
2018-04-29T06:43:32.860Z,25664
2018-04-29T06:44:34.519Z,21568
2018-04-29T06:45:36.190Z,20032
2018-04-29T06:46:37.846Z,17440
2018-04-29T06:47:39.512Z,15956
2018-04-29T06:48:41.164Z,18688
2018-04-29T06:49:42.836Z,18592
2018-04-29T06:50:44.515Z,19232
2018-04-29T06:51:46.203Z,20224
2018-04-29T06:52:47.877Z,34368
2018-04-29T06:53:49.545Z,35104
2018-04-29T06:54:51.208Z,38336
2018-04-29T06:55:52.863Z,41248
2018-04-29T06:56:54.536Z,31968
2018-04-29T06:57:56.187Z,53024
2018-04-29T06:58:57.862Z,55008
2018-04-29T06:59:59.527Z,62368
2018-04-29T07:01:01.188Z,36864
2018-04-29T07:02:02.869Z,46432
2018-04-29T07:03:04.524Z,29920
2018-04-29T07:04:06.195Z,28800
2018-04-29T07:05:07.852Z,30176
2018-04-29T07:06:09.513Z,40960
2018-04-29T07:07:11.192Z,28224
2018-04-29T07:08:12.875Z,29120
2018-04-29T07:09:14.525Z,46528
2018-04-29T07:10:16.186Z,60640
2018-04-29T07:11:17.852Z,61536
2018-04-29T07:12:19.512Z,67424
2018-04-29T07:13:21.178Z,67008
2018-04-29T07:14:22.851Z,73440
2018-04-29T07:15:24.523Z,63840
2018-04-29T07:16:26.188Z,41728
2018-04-29T07:17:27.880Z,37280
2018-04-29T07:18:29.521Z,36672
2018-04-29T07:19:31.173Z,35200
2018-04-29T07:20:32.849Z,38112
2018-04-29T07:21:34.524Z,28448
2018-04-29T07:22:36.215Z,28480
2018-04-29T07:23:37.885Z,29408
2018-04-29T07:24:39.550Z,25632
2018-04-29T07:25:41.221Z,23488
2018-04-29T07:26:42.882Z,21248
2018-04-29T07:27:44.546Z,19296
2018-04-29T07:28:46.323Z,17248
2018-04-29T07:29:47.908Z,15852
2018-04-29T07:30:49.576Z,15316
2018-04-29T07:31:51.245Z,15816
2018-04-29T07:32:52.900Z,16968
2018-04-29T07:33:54.562Z,19008
2018-04-29T07:34:56.232Z,21216
2018-04-29T07:35:57.900Z,23488
2018-04-29T07:36:59.570Z,46720
2018-04-29T07:38:01.247Z,28224
2018-04-29T07:39:02.915Z,31104
2018-04-29T07:40:04.641Z,32480
2018-04-29T07:41:06.251Z,33280
2018-04-29T07:42:07.912Z,34784
2018-04-29T07:43:09.592Z,42080
2018-04-29T07:44:11.264Z,52288
2018-04-29T07:45:12.924Z,94464
2018-04-29T07:46:14.596Z,87744
2018-04-29T07:47:16.263Z,94080
2018-04-29T07:48:17.927Z,81312
2018-04-29T07:49:19.598Z,94176
2018-04-29T07:50:21.265Z,86080
2018-04-29T07:51:22.942Z,76064
2018-04-29T07:52:24.684Z,91136
2018-04-29T07:53:26.292Z,67520
2018-04-29T07:54:27.953Z,43136
2018-04-29T07:55:29.626Z,34944
2018-04-29T07:56:31.299Z,32992
2018-04-29T07:57:32.976Z,31552
2018-04-29T07:58:34.644Z,29984
2018-04-29T07:59:36.328Z,28992
2018-04-29T08:00:38.010Z,27616
2018-04-29T08:01:39.669Z,26304
2018-04-29T08:02:41.371Z,23616
2018-04-29T08:03:43.042Z,19104
2018-04-29T08:04:44.709Z,14532
2018-04-29T08:05:46.402Z,11976
2018-04-29T08:06:48.133Z,10840
2018-04-29T08:07:49.738Z,10456
2018-04-29T08:08:51.418Z,10344
2018-04-29T08:09:53.115Z,10524
2018-04-29T08:10:54.828Z,11012
2018-04-29T08:11:56.467Z,11424
2018-04-29T08:12:58.133Z,11524
2018-04-29T08:13:59.929Z,11444
2018-04-29T08:15:01.593Z,10756
2018-04-29T08:16:03.250Z,9996
2018-04-29T08:17:04.955Z,9400
2018-04-29T08:18:06.614Z,9536
2018-04-29T08:19:08.278Z,9920
2018-04-29T08:20:09.955Z,10096
2018-04-29T08:21:11.611Z,10304
2018-04-29T08:22:13.273Z,10728
2018-04-29T08:23:14.939Z,11232
2018-04-29T08:24:16.611Z,11724
2018-04-29T08:25:18.297Z,12152
2018-04-29T08:26:19.954Z,12104
2018-04-29T08:27:21.625Z,11560
2018-04-29T08:28:23.293Z,10652
2018-04-29T08:29:24.953Z,9824
2018-04-29T08:30:26.629Z,9064
2018-04-29T08:31:28.293Z,8388
2018-04-29T08:32:29.948Z,8112
2018-04-29T08:33:31.614Z,8552
2018-04-29T08:34:33.748Z,9804
2018-04-29T08:35:35.401Z,11656
2018-04-29T08:36:37.122Z,13576
2018-04-29T08:37:38.866Z,14656
2018-04-29T08:38:40.603Z,14632
2018-04-29T08:39:42.268Z,14668
2018-04-29T08:40:43.967Z,15164
2018-04-29T08:41:45.639Z,15848
2018-04-29T08:42:47.293Z,15072
2018-04-29T08:43:51.879Z,13272
2018-04-29T08:44:53.705Z,11236
2018-04-29T08:45:55.369Z,9732
2018-04-29T08:46:57.132Z,8868
2018-04-29T08:47:58.726Z,8356
2018-04-29T08:49:00.986Z,7792
2018-04-29T08:50:02.646Z,7168
2018-04-29T08:51:04.297Z,6528
2018-04-29T08:52:05.962Z,5860
2018-04-29T08:53:07.623Z,5264
2018-04-29T08:54:09.732Z,4860
2018-04-29T08:55:11.363Z,4688
2018-04-29T08:56:13.266Z,4728
2018-04-29T08:57:14.925Z,4864
2018-04-29T08:58:16.635Z,5044
2018-04-29T08:59:18.472Z,5256
2018-04-29T09:00:20.144Z,5492
2018-04-29T09:01:21.811Z,5808
2018-04-29T09:02:23.471Z,6208
2018-04-29T09:03:25.138Z,6688
2018-04-29T09:04:26.866Z,7404
2018-04-29T09:05:28.562Z,8344
2018-04-29T09:06:30.256Z,9484
2018-04-29T09:07:32.075Z,11472
2018-04-29T09:08:33.605Z,15672
2018-04-29T09:09:35.273Z,23776
2018-04-29T09:10:36.936Z,34528
2018-04-29T09:11:38.608Z,41696
2018-04-29T09:12:40.269Z,63200
2018-04-29T09:13:41.927Z,40416
2018-04-29T09:14:43.605Z,33504
2018-04-29T09:15:45.260Z,32064
2018-04-29T09:16:46.923Z,40160
2018-04-29T09:17:48.588Z,45856
2018-04-29T09:18:50.274Z,50464
2018-04-29T09:19:52.092Z,73888
2018-04-29T09:20:53.749Z,94752
2018-04-29T09:21:55.420Z,83072
2018-04-29T09:22:57.102Z,103488
2018-04-29T09:23:58.773Z,61408
2018-04-29T09:25:00.585Z,43840
2018-04-29T09:26:02.249Z,51008
2018-04-29T09:27:03.920Z,124000
2018-04-29T09:28:05.586Z,54176
2018-04-29T09:29:07.250Z,52928
2018-04-29T09:30:08.908Z,44992
2018-04-29T09:31:10.577Z,38048
2018-04-29T09:32:12.854Z,127232
2018-04-29T09:33:14.496Z,67712
2018-04-29T09:34:16.174Z,120128
2018-04-29T09:35:17.973Z,41728
2018-04-29T09:36:19.635Z,34272
2018-04-29T09:37:21.305Z,29056
2018-04-29T09:38:22.964Z,26496
2018-04-29T09:39:24.687Z,24448
2018-04-29T09:40:26.362Z,24032
2018-04-29T09:41:28.033Z,25376
2018-04-29T09:42:29.833Z,27680
2018-04-29T09:43:31.550Z,29888
2018-04-29T09:44:33.169Z,32800
2018-04-29T09:45:34.834Z,35296
2018-04-29T09:46:37.310Z,36000
2018-04-29T09:47:38.972Z,38528
2018-04-29T09:48:40.706Z,38368
2018-04-29T09:49:42.314Z,41728
2018-04-29T09:50:43.972Z,84832
2018-04-29T09:51:47.048Z,60160
2018-04-29T09:52:48.714Z,105248
2018-04-29T09:53:50.382Z,109952
2018-04-29T09:54:52.058Z,115456
2018-04-29T10:01:13.265Z,43040
2018-04-29T10:02:14.843Z,45184
2018-04-29T10:04:06.836Z,40544
2018-04-29T10:05:08.510Z,42240
2018-04-29T10:07:00.642Z,92128
2018-04-29T10:08:02.760Z,69760
2018-04-29T10:09:04.432Z,107136
2018-04-29T10:10:06.098Z,102688
2018-04-29T10:11:07.977Z,107136
2018-04-29T10:12:09.637Z,112864
2018-04-29T10:13:11.313Z,76608
2018-04-29T10:14:13.062Z,106912
2018-04-29T10:15:14.919Z,74752
2018-04-29T10:16:16.618Z,77344
2018-04-29T10:17:18.272Z,72800
2018-04-29T10:18:19.966Z,110528
2018-04-29T10:19:21.644Z,121984
2018-04-29T10:20:23.341Z,117696
2018-04-29T10:21:25.016Z,122944
2018-04-29T10:22:26.712Z,118528
2018-04-29T10:23:28.387Z,43040
2018-04-29T10:24:30.097Z,64096
2018-04-29T10:25:31.733Z,109664
2018-04-29T10:26:33.401Z,59296
2018-04-29T10:27:35.086Z,120224
2018-04-29T10:28:36.765Z,101728
2018-04-29T10:29:38.458Z,91328
2018-04-29T10:30:40.128Z,32448
2018-04-29T10:31:41.806Z,34016
2018-04-29T10:32:43.599Z,34048
2018-04-29T10:33:45.133Z,91456
2018-04-29T10:34:46.889Z,38176
2018-04-29T10:35:48.573Z,97056
2018-04-29T10:36:50.246Z,79392
2018-04-29T10:37:51.914Z,42080
2018-04-29T10:38:53.609Z,86144
2018-04-29T10:39:55.283Z,131328
2018-04-29T10:40:57.009Z,144576
2018-04-29T10:41:58.776Z,137280
2018-04-29T10:43:00.456Z,124896
2018-04-29T10:44:02.137Z,123072
2018-04-29T10:45:03.823Z,120864
2018-04-29T10:46:05.504Z,125248
2018-04-29T10:47:07.190Z,121632
2018-04-29T10:48:08.860Z,115168
2018-04-29T10:49:10.573Z,108128
2018-04-29T10:50:12.251Z,114368
2018-04-29T10:51:13.923Z,102784
2018-04-29T10:52:15.794Z,94272
2018-04-29T10:53:17.488Z,96768
2018-04-29T10:54:19.274Z,88480
2018-04-29T10:55:20.869Z,93664
2018-04-29T10:56:22.550Z,93984
2018-04-29T10:57:24.241Z,75520
2018-04-29T10:58:25.919Z,91488
2018-04-29T10:59:27.647Z,104640
2018-04-29T11:00:29.314Z,115744
2018-04-29T11:01:30.993Z,144448
2018-04-29T11:02:32.694Z,142752
2018-04-29T11:03:34.351Z,115040
2018-04-29T11:04:36.039Z,135264
2018-04-29T11:05:37.716Z,112064
2018-04-29T11:06:39.450Z,127008
2018-04-29T11:07:41.146Z,148480
2018-04-29T11:08:42.825Z,146368
2018-04-29T11:09:44.599Z,140448
2018-04-29T11:10:46.517Z,141056
2018-04-29T11:11:48.284Z,132800
2018-04-29T11:12:49.836Z,128256
2018-04-29T11:13:51.508Z,130432
2018-04-29T11:14:53.199Z,117440
2018-04-29T11:15:54.907Z,107232
2018-04-29T11:16:56.596Z,109728
2018-04-29T11:17:58.269Z,101376
2018-04-29T11:18:59.952Z,116864
2018-04-29T11:20:01.639Z,121024
2018-04-29T11:21:03.319Z,132096
2018-04-29T11:22:05.151Z,132288
2018-04-29T11:23:06.732Z,133760
2018-04-29T11:24:08.411Z,136864
2018-04-29T11:25:10.110Z,139904
2018-04-29T11:26:11.817Z,106272
2018-04-29T11:27:13.465Z,90592
2018-04-29T11:28:15.153Z,53248
2018-04-29T11:29:16.836Z,29504
2018-04-29T11:30:18.533Z,43744
2018-04-29T11:31:20.200Z,33152
2018-04-29T11:32:21.885Z,46528
2018-04-29T11:33:23.591Z,139808
2018-04-29T11:34:25.258Z,149120
2018-04-29T11:35:26.930Z,126464
2018-04-29T11:36:28.611Z,93184
2018-04-29T11:37:30.294Z,109024
2018-04-29T11:38:31.966Z,101856
2018-04-29T11:39:33.648Z,94656
2018-04-29T11:40:35.400Z,94912
2018-04-29T11:41:37.015Z,39520
2018-04-29T11:42:38.684Z,102272
2018-04-29T11:43:40.366Z,112960
2018-04-29T11:44:42.029Z,104864
2018-04-29T11:45:43.739Z,118656
2018-04-29T11:46:45.423Z,104832
2018-04-29T11:47:47.102Z,86016
2018-04-29T11:48:48.790Z,95904
2018-04-29T11:49:50.452Z,65216
2018-04-29T11:50:52.129Z,57312
2018-04-29T11:51:53.802Z,86912
2018-04-29T11:52:55.480Z,70240
2018-04-29T11:53:57.154Z,71872
2018-04-29T11:54:58.866Z,79104
2018-04-29T11:56:00.529Z,60160
2018-04-29T11:57:02.199Z,94048
2018-04-29T11:58:03.862Z,54016
2018-04-29T11:59:05.544Z,41664
2018-04-29T12:00:07.338Z,37344
2018-04-29T12:01:09.009Z,38464
2018-04-29T12:02:10.694Z,40832
2018-04-29T12:03:12.376Z,44096
2018-04-29T12:04:14.050Z,40512
2018-04-29T12:05:15.727Z,36064
2018-04-29T12:06:17.395Z,45408
2018-04-29T12:07:19.064Z,40128
2018-04-29T12:08:20.751Z,34592
2018-04-29T12:09:22.437Z,36032
2018-04-29T12:10:24.114Z,42688
2018-04-29T12:11:25.790Z,55296
2018-04-29T12:12:27.467Z,116192
2018-04-29T12:13:29.144Z,110048
2018-04-29T12:14:30.819Z,100000
2018-04-29T12:15:32.498Z,101824
2018-04-29T12:16:34.176Z,90720
2018-04-29T12:17:35.838Z,87520
2018-04-29T12:18:37.516Z,70176
2018-04-29T12:19:39.193Z,62496
2018-04-29T12:20:40.954Z,46304
2018-04-29T12:21:42.622Z,36992
2018-04-29T12:22:44.324Z,37728
2018-04-29T12:23:46.033Z,44896
2018-04-29T12:24:47.699Z,41024
2018-04-29T12:25:49.396Z,37760
2018-04-29T12:26:51.087Z,31904
2018-04-29T12:27:52.760Z,29504
2018-04-29T12:28:54.429Z,30464
2018-04-29T12:29:56.099Z,29856
2018-04-29T12:30:57.774Z,28352
2018-04-29T12:31:59.454Z,25024
2018-04-29T12:33:01.130Z,23072
2018-04-29T12:34:02.789Z,24352
2018-04-29T12:35:04.468Z,30624
2018-04-29T12:36:06.146Z,30656
2018-04-29T12:37:07.808Z,29664
2018-04-29T12:38:09.476Z,29152
2018-04-29T12:39:11.137Z,30336
2018-04-29T12:40:12.800Z,34144
2018-04-29T12:41:14.476Z,36896
2018-04-29T12:42:16.157Z,33280
2018-04-29T12:43:17.838Z,32000
2018-04-29T12:44:19.506Z,32800
2018-04-29T12:45:21.178Z,32224
2018-04-29T12:46:22.841Z,32192
2018-04-29T12:47:24.515Z,32608
2018-04-29T12:48:26.188Z,33280
2018-04-29T12:49:27.860Z,33600
2018-04-29T12:50:29.582Z,33952
2018-04-29T12:51:31.244Z,34048
2018-04-29T12:52:32.909Z,33920
2018-04-29T12:53:34.580Z,33856
2018-04-29T12:54:36.251Z,32352
2018-04-29T12:55:38.007Z,30016
2018-04-29T12:56:39.660Z,28384
2018-04-29T12:57:41.332Z,28864
2018-04-29T12:58:43.006Z,30016
2018-04-29T12:59:44.693Z,30752
2018-04-29T13:00:46.389Z,30912
2018-04-29T13:01:48.053Z,32992
2018-04-29T13:02:49.711Z,37696
2018-04-29T13:03:51.387Z,45280
2018-04-29T13:04:53.055Z,40480
2018-04-29T13:05:54.724Z,36352
2018-04-29T13:06:56.394Z,32512
2018-04-29T13:07:58.073Z,29344
2018-04-29T13:08:59.741Z,26432
2018-04-29T13:10:01.499Z,22784
2018-04-29T13:11:03.163Z,19712
2018-04-29T13:12:04.866Z,16544
2018-04-29T13:13:06.523Z,14364
2018-04-29T13:14:08.203Z,13352
2018-04-29T13:15:09.868Z,12808
2018-04-29T13:16:11.543Z,13204
2018-04-29T13:17:13.216Z,14392
2018-04-29T13:18:14.881Z,16108
2018-04-29T13:19:16.557Z,22208
2018-04-29T13:20:18.238Z,24448
2018-04-29T13:21:20.746Z,27008
2018-04-29T13:22:22.428Z,31264
2018-04-29T13:23:24.105Z,33888
2018-04-29T13:24:25.952Z,36000
2018-04-29T13:25:27.598Z,36352
2018-04-29T13:26:29.298Z,36768
2018-04-29T13:27:30.996Z,35680
2018-04-29T13:28:32.665Z,52800
2018-04-29T13:29:34.361Z,39872
2018-04-29T13:30:36.022Z,36128
2018-04-29T13:31:37.687Z,34272
2018-04-29T13:32:39.359Z,33120
2018-04-29T13:33:41.100Z,32608
2018-04-29T13:34:42.777Z,33696
2018-04-29T13:35:44.566Z,34272
2018-04-29T13:36:46.151Z,34944
2018-04-29T13:37:47.953Z,32512
2018-04-29T13:38:49.616Z,33568
2018-04-29T13:39:51.292Z,36640
2018-04-29T13:40:52.966Z,40832
2018-04-29T13:41:54.641Z,44960
2018-04-29T13:42:56.332Z,62336
2018-04-29T13:43:58.001Z,61664
2018-04-29T13:44:59.677Z,61568
2018-04-29T13:46:01.536Z,52832
2018-04-29T13:47:03.200Z,39040
2018-04-29T13:48:04.869Z,48960
2018-04-29T13:49:06.545Z,53952
2018-04-29T13:50:08.268Z,50336
2018-04-29T13:51:09.948Z,62624
2018-04-29T13:52:11.618Z,56608
2018-04-29T13:53:13.342Z,51936
2018-04-29T13:54:15.011Z,45280
2018-04-29T13:55:16.693Z,50496
2018-04-29T14:02:02.139Z,25344
2018-04-29T14:03:03.782Z,27456
2018-04-29T14:04:55.705Z,28928
2018-04-29T14:05:57.366Z,30880
2018-04-29T14:07:49.255Z,34656
2018-04-29T14:08:50.939Z,47680
2018-04-29T14:09:53.069Z,50688
2018-04-29T14:10:54.742Z,49408
2018-04-29T14:11:56.398Z,53696
2018-04-29T14:12:58.099Z,39488
2018-04-29T14:13:59.743Z,37248
2018-04-29T14:15:01.428Z,27648
2018-04-29T14:16:03.159Z,39424
2018-04-29T14:17:04.786Z,38912
2018-04-29T14:18:06.466Z,34048
2018-04-29T14:19:08.182Z,33376
2018-04-29T14:20:09.861Z,31104
2018-04-29T14:21:11.538Z,35328
2018-04-29T14:22:13.214Z,34560
2018-04-29T14:23:14.881Z,37312
2018-04-29T14:24:16.555Z,40704
2018-04-29T14:25:18.220Z,41312